Saint Gallen, Switzerland

10:31 PM CET on March 05, 2015 (GMT +0100)
St.Gallen - Dreilindenhang | Change Station
CLOSE
Current Station
Personal Weather Station
Location: St. Gallen, SANKT GALLEN
Elevation: 2329 ft
Nearby Weather Stations

Elev 2329 ft 47.42 °N, 9.39 °E | Updated 1 minute ago

Scattered Clouds
Scattered Clouds
31.0 °F
Feels Like 31 °F
N
0.0
Wind Variable Wind from ENE

Today
High -- | Low -- °F
--% Chance of Precip.
Yesterday
High -- | Low -- °F
Precip. -- in
6:56 AM 6:12 PM
Full, 100% visible
Pressure 30.60 in
Visibility 6.2 miles
Clouds Scattered Clouds 6000 ft
Windchill 31 °F
Dew Point 24 °F
Humidity 74%
Rainfall in
Snow Depth Not available.
UV 0 out of 12
Pollen Not available.
Air Quality Not available.
Flu Activity Not available.
METAR LSZR 052120Z 11004KT 9999 SCT060 01/M02 Q1036 NOSIG RMK T

More Conditions Fewer Conditions

Pressure 30.60 in
Visibility 6.2 miles
Clouds Scattered Clouds 6000 ft
Windchill 31 °F
Dew Point 24 °F
Humidity 74%
Rainfall in
Snow Depth Not available.
UV 0 out of 12
Pollen Not available.
Air Quality Not available.
Flu Activity Not available.
METAR LSZR 052120Z 11004KT 9999 SCT060 01/M02 Q1036 NOSIG RMK T

More Conditions Fewer Conditions

10-Day Weather Forecast

Almanac

Astronomy

Mar. 05, 2015 Rise Set
Actual Time
Civil Twilight
Nautical Twilight
Astronomical Twilight
Moon
Length of Visible Light
Length of Day
Tomorrow will be .
, % of the Moon is Illuminated

Today's Extremes

Country Highs Country Lows

Community

WunderPhotos

Upload Photos

1,803,000 photos uploaded!

WunderBlogs® & News

Nearby

Air Quality

  Air Quality AQ Index Pollutant
Not available.

Snow Depth

Station Depth Elevation

Earthquake Activity

City Distance Mag. Time & Date
Minimum magnitude displayed is 2.5.

Coastal Water Temperatures

Place Temperature

Nearby Weather Stations